Yucca Valley, California
Current Conditions -  °F | °C
As of 6:56 AM on Wednesday 22 Oct 2014 (Local Time) from KNXP Reporting Station
Clear Clear  
Wind Chill: 59°   Ceiling: Unl
Heat Index: 59°   Visibility: 9mi
Dew Point: 34°   Wind: 7mph
Humidity: 39%   Direction: 300°WNW
Pressure: 30.04"   Gusts: NA
Location:  34.12°N, 116.41°W
Report Text: KNXP 221356Z AUTO 30006KT 9SM CLR 15/01 A3004 RMK AO2 SLP143 T01500011
Loading
Personal Weather Stations






























Interactive Weather Map
Tropical Storm Tracking
New forecast layout! Learn more

10-Day Weather Forecast

Advertisements
Track Severe Weather on mobile